Swinomish — WC5223 — position and weather

sailwx.info

Track history (hours):
 
Tides and Currents Weather Stations Pressure Air Temp Water Temp Dewpoint Dewpoint Depression Visibility Wind Speed Wind Dir Waves Ship Positions

Swinomish

Owner: DUNLAP TOWING CO, LA CONNER, WA. More information available from US FCC via Universal Licensing System and Coast Guard Vessel Documentation Center.

Last reported at 2016-Sep-26 15:32 UTC. Time now 2016-Sep-26 17:27 UTC.
Position N 48°24' W 122°30'.

Length 15 m; draft 3.5 m.

Type: Tug. MMSI: 366972050.

Date/timePositionNaut miles runAvg speedWind from/ knotsBaromVisibWave heightAir tempDewpointWater temp
2016-Sep-26 15:32N 48°24' W 122°30'0 0.0
2016-Sep-26 13:32N 48°24' W 122°30'0 0.0
2016-Sep-26 11:32N 48°24' W 122°30'0 0.0
2016-Sep-26 08:31N 48°24' W 122°30'0 0.0
2016-Sep-26 02:33N 48°24' W 122°30'0 0.0
2016-Sep-26 01:32N 48°24' W 122°30'0 0.0
2016-Sep-26 00:33N 48°24' W 122°30'0 0.0
2016-Sep-25 21:28N 48°24' W 122°30'0 0.0
2016-Sep-25 17:29N 48°24' W 122°30'0 0.0
2016-Sep-25 16:33N 48°24' W 122°30'0 0.0
2016-Sep-25 15:33N 48°24' W 122°30'0 0.0
2016-Sep-25 14:33N 48°24' W 122°30'0 0.0
2016-Sep-25 12:32N 48°24' W 122°30'0 0.0
2016-Sep-25 11:33N 48°24' W 122°30'0 0.0
2016-Sep-25 10:31N 48°24' W 122°30'0 0.0
2016-Sep-25 09:30N 48°24' W 122°30'0 0.0
2016-Sep-25 07:33N 48°24' W 122°30'0 0.0
2016-Sep-25 04:33N 48°24' W 122°30'0 0.0
2016-Sep-25 00:18N 48°24' W 122°30'0 0.0
2016-Sep-24 22:24N 48°24' W 122°30'0 0.0
2016-Sep-24 21:31N 48°24' W 122°30'0 0.0
2016-Sep-24 19:29N 48°24' W 122°30'0 0.0
2016-Sep-24 18:33N 48°24' W 122°30'0 0.0
2016-Sep-24 17:17N 48°24' W 122°30'0 0.0
2016-Sep-24 16:30N 48°24' W 122°30'0 0.0
2016-Sep-24 14:26N 48°24' W 122°30'0 0.0
2016-Sep-24 12:31N 48°24' W 122°30'0 0.0
2016-Sep-24 10:24N 48°24' W 122°30'0 0.0
2016-Sep-24 09:30N 48°24' W 122°30'0 0.0
2016-Sep-24 03:32N 48°24' W 122°30'0 0.0
2016-Sep-24 02:32N 48°24' W 122°30'0 0.0
2016-Sep-24 01:30N 48°24' W 122°30'0 0.0
2016-Sep-24 00:31N 48°24' W 122°30'0 0.0
2016-Sep-23 19:32N 48°24' W 122°30'0 0.0
2016-Sep-23 17:32N 48°24' W 122°30'0 0.0
2016-Sep-23 16:33N 48°24' W 122°30'0 0.0
2016-Sep-23 15:33N 48°24' W 122°30'0 0.0
2016-Sep-23 13:28N 48°24' W 122°30'0 0.0
2016-Sep-23 09:30N 48°24' W 122°30'0 0.0
2016-Sep-23 06:32N 48°24' W 122°30'0 0.0
2016-Sep-23 04:33N 48°24' W 122°30'0 0.0
2016-Sep-23 02:33N 48°24' W 122°30'2 1.9
2016-Sep-23 01:30N 48°22' W 122°31'9 8.8
2016-Sep-23 00:26N 48°13' W 122°33'1010.9
2016-Sep-22 23:33N 48°05' W 122°26'20 6.8
2016-Sep-22 20:33N 47°44' W 122°25'30 1.5
2016-Sep-22 00:34N 47°15' W 122°34'3 3.2
2016-Sep-21 23:33N 47°18' W 122°33'1 1.3
2016-Sep-21 22:33N 47°19' W 122°32'3 1.0
2016-Sep-21 19:34N 47°17' W 122°28'3 0.9
2016-Sep-21 16:33N 47°20' W 122°27'12 1.7
2016-Sep-21 09:33N 47°32' W 122°28'2 2.1
2016-Sep-21 08:33N 47°34' W 122°28'5 1.6
2016-Sep-21 05:34N 47°39' W 122°29'2 1.2
2016-Sep-21 03:33N 47°41' W 122°29'2 1.6
2016-Sep-21 02:33N 47°43' W 122°29'19 2.1
2016-Sep-20 17:33N 47°59' W 122°14'0 0.1
2016-Sep-20 14:33N 47°59' W 122°13'0 0.1
2016-Sep-20 13:33N 47°59' W 122°13'1 0.5
2016-Sep-20 10:22N 47°59' W 122°16'2 1.2
2016-Sep-20 08:32N 48°01' W 122°17'1 1.0
2016-Sep-20 07:28N 48°02' W 122°18'1 1.0
2016-Sep-20 06:28N 48°02' W 122°20'6 1.4
2016-Sep-20 02:31N 48°05' W 122°27'3 1.0
2016-Sep-19 23:29N 48°07' W 122°30'8 1.9
2016-Sep-19 19:18N 48°15' W 122°33'2 2.5
2016-Sep-19 18:33N 48°16' W 122°31'4 2.1
2016-Sep-19 16:27N 48°21' W 122°33'1 0.7
2016-Sep-19 14:32N 48°22' W 122°32'2 2.3
2016-Sep-19 13:31N 48°24' W 122°30'0 0.0
2016-Sep-19 12:33N 48°24' W 122°30'0 0.0
2016-Sep-19 11:33N 48°24' W 122°30'0 0.0
2016-Sep-19 09:33N 48°24' W 122°30'0 0.0
2016-Sep-19 07:33N 48°24' W 122°30'0 0.0
2016-Sep-19 06:33N 48°24' W 122°30'3 1.1
2016-Sep-19 03:33N 48°22' W 122°33'1010.1
2016-Sep-19 02:33N 48°11' W 122°33'18 9.0
2016-Sep-19 00:33N 47°59' W 122°13'5 1.0
2016-Sep-18 19:31N 48°02' W 122°19'7 1.9
2016-Sep-18 15:32N 48°06' W 122°28'2 2.0
2016-Sep-18 14:30N 48°07' W 122°31'7 1.8
2016-Sep-18 10:33N 48°14' W 122°33'2 1.8
2016-Sep-18 09:33N 48°16' W 122°32'10 1.4
2016-Sep-18 02:30N 48°26' W 122°34'0 0.0
2016-Sep-18 01:31N 48°26' W 122°34'0 0.0
2016-Sep-18 00:25N 48°26' W 122°34'0 0.0
2016-Sep-17 22:31N 48°26' W 122°34'0 0.0
2016-Sep-17 21:33N 48°26' W 122°34'0 0.0
2016-Sep-17 20:32N 48°26' W 122°34'2 0.9
2016-Sep-17 18:29N 48°25' W 122°37'8 1.5
2016-Sep-17 13:29N 48°30' W 122°44'1 1.3
2016-Sep-17 12:31N 48°31' W 122°46'2 1.0
2016-Sep-17 10:33N 48°32' W 122°49'1 0.5
2016-Sep-17 09:30N 48°32' W 122°49'1 1.1
2016-Sep-17 08:31N 48°31' W 122°51'0 0.1
2016-Sep-17 07:33N 48°31' W 122°51'0 0.0
2016-Sep-17 05:32N 48°31' W 122°51'0 0.0
2016-Sep-17 04:33N 48°31' W 122°51'0 0.0
2016-Sep-17 00:33N 48°31' W 122°51'0 0.0
2016-Sep-16 17:33N 48°31' W 122°51'2 1.2
2016-Sep-16 15:33N 48°34' W 122°51'  
Track history (hours):
 
Tides and Currents Weather Stations Pressure Air Temp Water Temp Dewpoint Dewpoint Depression Visibility Wind Speed Wind Dir Waves Ship Positions

Swinomish

Owner: DUNLAP TOWING CO, LA CONNER, WA. More information available from US FCC via Universal Licensing System and Coast Guard Vessel Documentation Center.

Last reported at 2016-Sep-26 15:32 UTC. Time now 2016-Sep-26 17:27 UTC.
Position N 48°24' W 122°30'.

Length 15 m; draft 3.5 m.

Type: Tug. MMSI: 366972050.

Date/timePositionNaut miles runAvg speedWind from/ knotsBaromVisibWave heightAir tempDewpointWater temp
2016-Sep-26 15:32N 48°24' W 122°30'0 0.0
2016-Sep-26 13:32N 48°24' W 122°30'0 0.0
2016-Sep-26 11:32N 48°24' W 122°30'0 0.0
2016-Sep-26 08:31N 48°24' W 122°30'0 0.0
2016-Sep-26 02:33N 48°24' W 122°30'0 0.0
2016-Sep-26 01:32N 48°24' W 122°30'0 0.0
2016-Sep-26 00:33N 48°24' W 122°30'0 0.0
2016-Sep-25 21:28N 48°24' W 122°30'0 0.0
2016-Sep-25 17:29N 48°24' W 122°30'0 0.0
2016-Sep-25 16:33N 48°24' W 122°30'0 0.0
2016-Sep-25 15:33N 48°24' W 122°30'0 0.0
2016-Sep-25 14:33N 48°24' W 122°30'0 0.0
2016-Sep-25 12:32N 48°24' W 122°30'0 0.0
2016-Sep-25 11:33N 48°24' W 122°30'0 0.0
2016-Sep-25 10:31N 48°24' W 122°30'0 0.0
2016-Sep-25 09:30N 48°24' W 122°30'0 0.0
2016-Sep-25 07:33N 48°24' W 122°30'0 0.0
2016-Sep-25 04:33N 48°24' W 122°30'0 0.0
2016-Sep-25 00:18N 48°24' W 122°30'0 0.0
2016-Sep-24 22:24N 48°24' W 122°30'0 0.0
2016-Sep-24 21:31N 48°24' W 122°30'0 0.0
2016-Sep-24 19:29N 48°24' W 122°30'0 0.0
2016-Sep-24 18:33N 48°24' W 122°30'0 0.0
2016-Sep-24 17:17N 48°24' W 122°30'0 0.0
2016-Sep-24 16:30N 48°24' W 122°30'0 0.0
2016-Sep-24 14:26N 48°24' W 122°30'0 0.0
2016-Sep-24 12:31N 48°24' W 122°30'0 0.0
2016-Sep-24 10:24N 48°24' W 122°30'0 0.0
2016-Sep-24 09:30N 48°24' W 122°30'0 0.0
2016-Sep-24 03:32N 48°24' W 122°30'0 0.0
2016-Sep-24 02:32N 48°24' W 122°30'0 0.0
2016-Sep-24 01:30N 48°24' W 122°30'0 0.0
2016-Sep-24 00:31N 48°24' W 122°30'0 0.0
2016-Sep-23 19:32N 48°24' W 122°30'0 0.0
2016-Sep-23 17:32N 48°24' W 122°30'0 0.0
2016-Sep-23 16:33N 48°24' W 122°30'0 0.0
2016-Sep-23 15:33N 48°24' W 122°30'0 0.0
2016-Sep-23 13:28N 48°24' W 122°30'0 0.0
2016-Sep-23 09:30N 48°24' W 122°30'0 0.0
2016-Sep-23 06:32N 48°24' W 122°30'0 0.0
2016-Sep-23 04:33N 48°24' W 122°30'0 0.0
2016-Sep-23 02:33N 48°24' W 122°30'2 1.9
2016-Sep-23 01:30N 48°22' W 122°31'9 8.8
2016-Sep-23 00:26N 48°13' W 122°33'1010.9
2016-Sep-22 23:33N 48°05' W 122°26'20 6.8
2016-Sep-22 20:33N 47°44' W 122°25'30 1.5
2016-Sep-22 00:34N 47°15' W 122°34'3 3.2
2016-Sep-21 23:33N 47°18' W 122°33'1 1.3
2016-Sep-21 22:33N 47°19' W 122°32'3 1.0
2016-Sep-21 19:34N 47°17' W 122°28'3 0.9
2016-Sep-21 16:33N 47°20' W 122°27'12 1.7
2016-Sep-21 09:33N 47°32' W 122°28'2 2.1
2016-Sep-21 08:33N 47°34' W 122°28'5 1.6
2016-Sep-21 05:34N 47°39' W 122°29'2 1.2
2016-Sep-21 03:33N 47°41' W 122°29'2 1.6
2016-Sep-21 02:33N 47°43' W 122°29'19 2.1
2016-Sep-20 17:33N 47°59' W 122°14'0 0.1
2016-Sep-20 14:33N 47°59' W 122°13'0 0.1
2016-Sep-20 13:33N 47°59' W 122°13'1 0.5
2016-Sep-20 10:22N 47°59' W 122°16'2 1.2
2016-Sep-20 08:32N 48°01' W 122°17'1 1.0
2016-Sep-20 07:28N 48°02' W 122°18'1 1.0
2016-Sep-20 06:28N 48°02' W 122°20'6 1.4
2016-Sep-20 02:31N 48°05' W 122°27'3 1.0
2016-Sep-19 23:29N 48°07' W 122°30'8 1.9
2016-Sep-19 19:18N 48°15' W 122°33'2 2.5
2016-Sep-19 18:33N 48°16' W 122°31'4 2.1
2016-Sep-19 16:27N 48°21' W 122°33'1 0.7
2016-Sep-19 14:32N 48°22' W 122°32'2 2.3
2016-Sep-19 13:31N 48°24' W 122°30'0 0.0
2016-Sep-19 12:33N 48°24' W 122°30'0 0.0
2016-Sep-19 11:33N 48°24' W 122°30'0 0.0
2016-Sep-19 09:33N 48°24' W 122°30'0 0.0
2016-Sep-19 07:33N 48°24' W 122°30'0 0.0
2016-Sep-19 06:33N 48°24' W 122°30'3 1.1
2016-Sep-19 03:33N 48°22' W 122°33'1010.1
2016-Sep-19 02:33N 48°11' W 122°33'18 9.0
2016-Sep-19 00:33N 47°59' W 122°13'5 1.0
2016-Sep-18 19:31N 48°02' W 122°19'7 1.9
2016-Sep-18 15:32N 48°06' W 122°28'2 2.0
2016-Sep-18 14:30N 48°07' W 122°31'7 1.8
2016-Sep-18 10:33N 48°14' W 122°33'2 1.8
2016-Sep-18 09:33N 48°16' W 122°32'10 1.4
2016-Sep-18 02:30N 48°26' W 122°34'0 0.0
2016-Sep-18 01:31N 48°26' W 122°34'0 0.0
2016-Sep-18 00:25N 48°26' W 122°34'0 0.0
2016-Sep-17 22:31N 48°26' W 122°34'0 0.0
2016-Sep-17 21:33N 48°26' W 122°34'0 0.0
2016-Sep-17 20:32N 48°26' W 122°34'2 0.9
2016-Sep-17 18:29N 48°25' W 122°37'8 1.5
2016-Sep-17 13:29N 48°30' W 122°44'1 1.3
2016-Sep-17 12:31N 48°31' W 122°46'2 1.0
2016-Sep-17 10:33N 48°32' W 122°49'1 0.5
2016-Sep-17 09:30N 48°32' W 122°49'1 1.1
2016-Sep-17 08:31N 48°31' W 122°51'0 0.1
2016-Sep-17 07:33N 48°31' W 122°51'0 0.0
2016-Sep-17 05:32N 48°31' W 122°51'0 0.0
2016-Sep-17 04:33N 48°31' W 122°51'0 0.0
2016-Sep-17 00:33N 48°31' W 122°51'0 0.0
2016-Sep-16 17:33N 48°31' W 122°51'2 1.2
2016-Sep-16 15:33N 48°34' W 122°51'  

Dump ship's entire track history